Time;durP1;ratioP1;P1;durP2;ratioP2;P2;SDS_P1;SDS_P2;PMS_P1;PMS_P2;Temp;Humidity;BMP_temperature;BMP_pressure;BME280_temperature;BME280_humidity;BME280_pressure;Samples;Min_cycle;Max_cycle;Signal;HPM_P1;HPM_P2
2021/10/01 00:01:25;;;;;;;0.80;0.50;;;10.00;99.90;;;;;;5079667;28;20462;-79
2021/10/01 00:03:53;;;;;;;0.80;0.50;;;10.10;99.90;;;;;;5077103;28;20408;-79
2021/10/01 00:06:21;;;;;;;1.10;0.77;;;10.10;99.90;;;;;;5078350;28;20401;-78
2021/10/01 00:08:49;;;;;;;0.80;0.50;;;10.20;1.00;;;;;;5080380;28;20516;-77
2021/10/01 00:11:18;;;;;;;2.73;0.87;;;10.10;99.90;;;;;;5078960;28;20538;-79
2021/10/01 00:13:48;;;;;;;0.83;0.47;;;10.20;99.90;;;;;;5081147;28;20399;-79
2021/10/01 00:16:17;;;;;;;0.80;0.50;;;10.20;99.90;;;;;;5080317;28;20422;-78
2021/10/01 00:18:45;;;;;;;0.87;0.50;;;10.20;99.90;;;;;;5078274;28;20456;-78
2021/10/01 00:21:14;;;;;;;0.90;0.60;;;10.20;99.90;;;;;;5077479;28;20476;-79
2021/10/01 00:23:42;;;;;;;0.90;0.70;;;10.20;99.90;;;;;;5077715;28;20421;-78
2021/10/01 00:26:10;;;;;;;0.80;0.53;;;10.10;99.90;;;;;;5078589;28;20484;-79
2021/10/01 00:28:39;;;;;;;0.80;0.50;;;10.00;99.90;;;;;;5078010;28;20460;-78
2021/10/01 00:31:08;;;;;;;0.97;0.77;;;10.00;99.90;;;;;;5077641;28;20469;-78
2021/10/01 00:33:37;;;;;;;0.80;0.50;;;10.00;99.90;;;;;;5075774;28;20797;-78
2021/10/01 00:36:06;;;;;;;1.63;0.63;;;9.80;99.90;;;;;;5079957;28;20408;-78
2021/10/01 00:38:34;;;;;;;0.80;0.50;;;9.80;99.90;;;;;;5078810;28;20446;-80
2021/10/01 00:41:02;;;;;;;1.10;0.80;;;9.70;99.90;;;;;;5079456;28;20429;-78
2021/10/01 00:43:30;;;;;;;0.90;0.50;;;9.60;99.90;;;;;;5076636;28;20412;-79
2021/10/01 00:45:58;;;;;;;0.90;0.50;;;9.50;99.90;;;;;;5076837;28;20442;-79
2021/10/01 00:48:28;;;;;;;0.80;0.50;;;9.60;99.90;;;;;;5076374;28;20416;-78
2021/10/01 00:50:57;;;;;;;1.23;1.13;;;9.50;99.90;;;;;;5077157;28;20781;-79
2021/10/01 00:53:26;;;;;;;1.00;0.70;;;9.50;99.90;;;;;;5078050;28;20805;-77
2021/10/01 00:55:56;;;;;;;0.90;0.50;;;9.40;99.90;;;;;;5078573;28;20397;-79
2021/10/01 00:58:24;;;;;;;1.10;0.63;;;9.40;99.90;;;;;;5077151;28;20417;-79
2021/10/01 01:01:04;;;;;;;2.50;0.70;;;9.30;99.90;;;;;;5077422;28;20401;-78
2021/10/01 01:03:35;;;;;;;0.93;0.73;;;9.20;99.90;;;;;;5077026;28;20416;-79
2021/10/01 01:06:11;;;;;;;1.00;0.60;;;9.30;99.90;;;;;;5076743;28;20426;-79
2021/10/01 01:08:48;;;;;;;2.50;2.03;;;9.20;99.90;;;;;;5075587;28;20412;-79
2021/10/01 01:11:25;;;;;;;0.80;0.50;;;9.30;99.90;;;;;;5078039;28;20822;-79
2021/10/01 01:14:02;;;;;;;1.00;0.57;;;9.30;99.90;;;;;;5075708;28;20434;-79
2021/10/01 01:16:36;;;;;;;0.80;0.40;;;9.30;99.90;;;;;;5077501;28;20434;-79
2021/10/01 01:19:10;;;;;;;1.20;0.87;;;9.20;99.90;;;;;;5076940;28;20547;-79
2021/10/01 01:21:50;;;;;;;0.90;0.60;;;9.20;99.90;;;;;;5075667;28;20484;-78
2021/10/01 01:24:55;;;;;;;0.90;0.70;;;9.20;99.90;;;;;;5074230;28;20446;-78
2021/10/01 01:27:43;;;;;;;0.80;0.50;;;9.30;99.90;;;;;;5077056;28;20474;-78
2021/10/01 01:30:15;;;;;;;0.80;0.50;;;9.20;99.90;;;;;;5077959;28;20418;-78
2021/10/01 01:32:54;;;;;;;0.80;0.50;;;9.20;99.90;;;;;;5080913;28;20448;-78
2021/10/01 01:35:27;;;;;;;0.90;0.60;;;9.20;99.90;;;;;;5081288;28;20704;-78
2021/10/01 01:37:58;;;;;;;0.90;0.70;;;9.20;99.90;;;;;;5080645;28;20496;-78
2021/10/01 01:40:31;;;;;;;0.80;0.50;;;9.20;99.90;;;;;;5084149;28;20541;-78
2021/10/01 01:43:02;;;;;;;0.98;0.75;;;9.20;99.90;;;;;;5088611;28;20429;-78
2021/10/01 01:45:31;;;;;;;0.80;0.50;;;9.20;99.90;;;;;;5085384;28;20192;-78
2021/10/01 01:48:00;;;;;;;0.80;0.50;;;9.10;99.90;;;;;;5090662;28;20192;-78
2021/10/01 01:50:29;;;;;;;0.90;0.50;;;9.10;99.90;;;;;;5080011;28;20750;-78
2021/10/01 01:52:59;;;;;;;0.80;0.50;;;9.10;99.90;;;;;;5082546;28;20437;-78
2021/10/01 01:55:28;;;;;;;0.85;0.60;;;9.10;99.90;;;;;;5080197;28;20184;-78
2021/10/01 01:57:59;;;;;;;2.10;1.25;;;9.10;99.90;;;;;;5079004;28;20283;-78
2021/10/01 02:01:00;;;;;;;1.42;0.85;;;9.10;99.90;;;;;;5076932;28;20222;-77
2021/10/01 02:03:34;;;;;;;1.02;0.50;;;9.10;99.90;;;;;;5083365;28;20180;-78
2021/10/01 02:06:14;;;;;;;0.90;0.57;;;9.00;99.90;;;;;;5085980;28;20188;-79
2021/10/01 02:08:43;;;;;;;0.90;0.50;;;9.00;99.90;;;;;;5081826;28;20230;-78
2021/10/01 02:11:13;;;;;;;0.80;0.50;;;9.00;99.90;;;;;;5079816;28;20241;-78
2021/10/01 02:13:42;;;;;;;1.10;0.65;;;9.00;99.90;;;;;;5082799;28;20232;-79
2021/10/01 02:16:14;;;;;;;0.80;0.40;;;9.00;99.90;;;;;;5083789;28;20210;-79
2021/10/01 02:18:48;;;;;;;1.90;0.80;;;9.00;99.90;;;;;;5084798;28;20219;-79
2021/10/01 02:21:18;;;;;;;1.00;0.60;;;8.90;99.90;;;;;;5081934;28;20219;-78
2021/10/01 02:23:48;;;;;;;0.80;0.50;;;9.00;99.90;;;;;;5078818;28;20559;-79
2021/10/01 02:26:34;;;;;;;1.53;1.43;;;9.00;99.90;;;;;;5083452;28;20227;-78
2021/10/01 02:29:09;;;;;;;0.90;0.57;;;8.90;99.90;;;;;;5078938;28;20525;-78
2021/10/01 02:31:48;;;;;;;1.17;1.02;;;9.00;99.90;;;;;;5078289;28;20425;-79
2021/10/01 02:34:26;;;;;;;0.80;0.50;;;9.00;99.90;;;;;;5076968;28;20230;-79
2021/10/01 02:36:54;;;;;;;1.20;0.93;;;9.00;99.90;;;;;;5077819;28;20184;-79
2021/10/01 02:39:23;;;;;;;0.80;0.50;;;9.00;99.90;;;;;;5079799;28;20234;-78
2021/10/01 02:41:51;;;;;;;0.80;0.50;;;9.10;99.90;;;;;;5081467;28;20458;-78
2021/10/01 02:44:19;;;;;;;0.80;0.50;;;9.00;99.90;;;;;;5082595;28;20192;-79
2021/10/01 02:46:48;;;;;;;0.80;0.50;;;9.10;99.90;;;;;;5077512;28;20227;-79
2021/10/01 02:49:16;;;;;;;1.53;1.23;;;9.00;99.90;;;;;;5080277;28;20450;-78
2021/10/01 02:51:51;;;;;;;1.00;0.60;;;9.10;99.90;;;;;;5079037;28;20437;-78
2021/10/01 02:54:24;;;;;;;1.10;0.63;;;9.10;99.90;;;;;;5074597;28;20549;-78
2021/10/01 02:56:58;;;;;;;0.80;0.50;;;9.00;99.90;;;;;;5082451;28;20445;-78
2021/10/01 02:59:29;;;;;;;1.23;0.60;;;9.10;99.90;;;;;;5081304;28;20502;-78
2021/10/01 03:02:00;;;;;;;0.80;0.50;;;9.10;99.90;;;;;;5079536;28;20287;-78
2021/10/01 03:04:29;;;;;;;1.10;1.00;;;9.00;99.90;;;;;;5081232;28;20410;-79
2021/10/01 03:07:03;;;;;;;1.20;1.10;;;9.00;99.90;;;;;;5079553;28;20430;-78
2021/10/01 03:09:34;;;;;;;0.90;0.50;;;9.00;99.90;;;;;;5078129;28;20438;-80
2021/10/01 03:12:04;;;;;;;1.10;0.50;;;8.90;99.90;;;;;;5080894;28;20423;-78
2021/10/01 03:14:33;;;;;;;0.93;0.53;;;9.00;99.90;;;;;;5087976;28;20433;-78
2021/10/01 03:17:02;;;;;;;0.83;0.50;;;9.00;99.90;;;;;;5090504;28;20410;-78
2021/10/01 03:19:31;;;;;;;1.00;0.70;;;9.00;99.90;;;;;;5085187;28;20481;-78
2021/10/01 03:22:03;;;;;;;0.80;0.50;;;9.00;99.90;;;;;;5081916;28;20472;-78
2021/10/01 03:24:31;;;;;;;0.80;0.50;;;8.90;99.90;;;;;;5084113;28;20454;-78
2021/10/01 03:27:00;;;;;;;0.80;0.50;;;8.90;99.90;;;;;;5080490;28;20515;-78
2021/10/01 03:29:31;;;;;;;0.88;0.60;;;8.80;99.90;;;;;;5083078;28;20284;-78
2021/10/01 03:32:01;;;;;;;0.90;0.60;;;8.90;99.90;;;;;;5087836;28;20293;-78
2021/10/01 03:34:30;;;;;;;0.90;0.50;;;8.80;99.90;;;;;;5085343;28;20440;-78
2021/10/01 03:37:09;;;;;;;0.80;0.50;;;8.80;99.90;;;;;;5086346;28;20666;-78
2021/10/01 03:39:39;;;;;;;0.80;0.50;;;8.80;99.90;;;;;;5084693;28;20184;-77
2021/10/01 03:42:08;;;;;;;0.80;0.50;;;8.70;99.90;;;;;;5084751;28;20754;-79
2021/10/01 03:44:36;;;;;;;0.80;0.50;;;8.70;99.90;;;;;;5082590;28;20434;-79
2021/10/01 03:47:04;;;;;;;1.00;0.60;;;8.70;99.90;;;;;;5083998;28;20434;-79
2021/10/01 03:49:32;;;;;;;0.90;0.70;;;8.70;99.90;;;;;;5081398;28;20258;-78
2021/10/01 03:52:01;;;;;;;1.20;0.85;;;8.60;99.90;;;;;;5078680;28;20504;-78
2021/10/01 03:54:31;;;;;;;0.90;0.50;;;8.60;99.90;;;;;;5076709;28;20686;-80
2021/10/01 03:56:59;;;;;;;0.80;0.50;;;8.50;99.90;;;;;;5081734;28;20182;-79
2021/10/01 03:59:27;;;;;;;0.90;0.65;;;8.50;99.90;;;;;;5078688;28;20251;-78
2021/10/01 04:01:55;;;;;;;0.80;0.60;;;8.50;99.90;;;;;;5079642;28;20212;-79
2021/10/01 04:04:24;;;;;;;1.00;0.60;;;8.40;99.90;;;;;;5085220;28;20184;-79
2021/10/01 04:06:53;;;;;;;0.80;0.40;;;8.50;99.90;;;;;;5095196;28;20199;-79
2021/10/01 04:09:21;;;;;;;0.90;0.60;;;8.40;99.90;;;;;;5096937;28;20192;-78
2021/10/01 04:11:53;;;;;;;0.80;0.50;;;8.50;99.90;;;;;;5097620;28;20211;-78
2021/10/01 04:14:22;;;;;;;1.02;0.93;;;8.60;99.90;;;;;;5082061;28;20204;-79
2021/10/01 04:16:51;;;;;;;1.02;0.73;;;8.50;99.90;;;;;;5079518;28;20748;-79
2021/10/01 04:19:21;;;;;;;1.15;0.77;;;8.50;99.90;;;;;;5077237;28;20188;-78
2021/10/01 04:22:05;;;;;;;1.08;0.98;;;8.50;99.90;;;;;;5076292;28;20243;-78
2021/10/01 04:24:54;;;;;;;2.25;0.60;;;8.40;99.90;;;;;;5079321;28;20668;-79
2021/10/01 04:27:23;;;;;;;0.90;0.70;;;8.50;99.90;;;;;;5085951;28;20219;-78
2021/10/01 04:29:52;;;;;;;0.90;0.60;;;8.40;99.90;;;;;;5087014;28;20214;-79
2021/10/01 04:32:23;;;;;;;0.80;0.60;;;8.40;99.90;;;;;;5087217;28;20695;-78
2021/10/01 04:35:05;;;;;;;1.20;0.95;;;8.50;99.90;;;;;;5085457;28;20204;-77
2021/10/01 04:37:36;;;;;;;1.00;0.60;;;8.40;99.90;;;;;;5082763;28;20202;-78
2021/10/01 04:40:05;;;;;;;0.80;0.40;;;8.40;99.90;;;;;;5088594;28;20214;-79
2021/10/01 04:42:37;;;;;;;0.80;0.50;;;8.30;99.90;;;;;;5082342;28;20211;-79
2021/10/01 04:45:06;;;;;;;1.45;0.70;;;8.40;99.90;;;;;;5080055;28;20636;-80
2021/10/01 04:47:37;;;;;;;0.98;0.50;;;8.50;99.90;;;;;;5074707;28;20195;-78
2021/10/01 04:50:07;;;;;;;0.97;0.53;;;8.50;99.90;;;;;;5074617;28;20203;-79
2021/10/01 04:52:35;;;;;;;0.80;0.50;;;8.50;99.90;;;;;;5075755;28;20541;-79
2021/10/01 04:55:05;;;;;;;1.20;1.10;;;8.50;99.90;;;;;;5076922;28;20592;-79
2021/10/01 04:57:33;;;;;;;0.80;0.50;;;8.50;99.90;;;;;;5077944;28;20385;-78
2021/10/01 05:00:21;;;;;;;0.90;0.60;;;8.50;99.90;;;;;;5073702;28;20671;-79
2021/10/01 05:03:08;;;;;;;0.80;0.50;;;8.50;99.90;;;;;;5058102;28;20611;-80
2021/10/01 05:05:56;;;;;;;1.42;1.15;;;8.60;99.90;;;;;;5058300;28;20211;-79
2021/10/01 05:08:43;;;;;;;0.80;0.50;;;8.60;99.90;;;;;;5057971;28;20560;-79
2021/10/01 05:11:30;;;;;;;0.80;0.50;;;8.60;99.90;;;;;;5065423;28;20757;-79
2021/10/01 05:14:19;;;;;;;0.95;0.60;;;8.60;99.90;;;;;;5054711;28;20204;-79
2021/10/01 05:17:07;;;;;;;0.93;0.50;;;8.60;99.90;;;;;;5080078;28;20206;-80
2021/10/01 05:19:54;;;;;;;0.90;0.57;;;8.50;99.90;;;;;;5060581;28;20214;-80
2021/10/01 05:22:34;;;;;;;0.90;0.70;;;8.50;99.90;;;;;;5069784;28;20211;-79
2021/10/01 05:25:02;;;;;;;1.00;0.50;;;8.60;99.90;;;;;;5074996;28;20218;-79
2021/10/01 05:27:30;;;;;;;1.00;0.50;;;8.70;99.90;;;;;;5061535;28;20629;-79
2021/10/01 05:29:59;;;;;;;1.38;0.70;;;8.70;99.90;;;;;;5058530;28;20196;-79
2021/10/01 05:32:28;;;;;;;0.80;0.47;;;8.80;99.90;;;;;;5054693;28;20212;-80
2021/10/01 05:34:56;;;;;;;1.08;0.77;;;8.80;99.90;;;;;;5057935;28;20459;-79
2021/10/01 05:37:24;;;;;;;1.55;0.68;;;8.80;99.90;;;;;;5059869;28;20284;-79
2021/10/01 05:39:53;;;;;;;1.00;0.60;;;8.90;99.90;;;;;;5060224;28;20276;-78
2021/10/01 05:42:21;;;;;;;0.80;0.50;;;8.90;99.90;;;;;;5055278;28;20208;-79
2021/10/01 05:44:50;;;;;;;0.90;0.60;;;8.90;99.90;;;;;;5055176;28;20433;-79
2021/10/01 05:47:38;;;;;;;1.88;1.75;;;9.00;99.90;;;;;;5058181;28;20399;-79
2021/10/01 05:50:27;;;;;;;1.23;1.13;;;9.10;99.90;;;;;;5058257;28;20260;-78
2021/10/01 05:53:35;;;;;;;0.80;0.50;;;9.20;99.90;;;;;;5056084;28;20467;-79
2021/10/01 05:56:22;;;;;;;1.10;0.70;;;9.30;99.90;;;;;;5057320;28;20407;-79
2021/10/01 05:59:09;;;;;;;0.90;0.60;;;9.40;99.90;;;;;;5058110;28;20911;-79
2021/10/01 06:01:38;;;;;;;1.10;0.90;;;9.50;99.90;;;;;;5056304;28;20503;-79
2021/10/01 06:04:07;;;;;;;0.90;0.50;;;9.60;99.90;;;;;;5058249;28;20447;-80
2021/10/01 06:06:35;;;;;;;0.90;0.70;;;9.60;99.90;;;;;;5058174;28;20402;-79
2021/10/01 06:09:07;;;;;;;0.90;0.60;;;9.60;99.90;;;;;;5056598;28;20423;-79
2021/10/01 06:11:36;;;;;;;0.83;0.53;;;9.70;99.90;;;;;;5058697;28;20243;-79
2021/10/01 06:14:06;;;;;;;0.80;0.50;;;9.80;99.90;;;;;;5067146;28;20434;-79
2021/10/01 06:16:34;;;;;;;1.00;0.70;;;9.90;99.90;;;;;;5062805;28;20413;-78
2021/10/01 06:19:04;;;;;;;2.90;0.70;;;10.00;99.90;;;;;;5067689;28;20449;-79
2021/10/01 06:21:33;;;;;;;0.90;0.50;;;10.20;99.90;;;;;;5078700;28;20455;-79
2021/10/01 06:24:01;;;;;;;0.80;0.53;;;10.30;99.90;;;;;;5064658;28;20386;-79
2021/10/01 06:26:29;;;;;;;0.80;0.50;;;10.40;99.90;;;;;;5066630;28;20411;-79
2021/10/01 06:28:57;;;;;;;0.90;0.50;;;10.50;99.90;;;;;;5066728;28;20422;-79
2021/10/01 06:31:26;;;;;;;1.10;0.80;;;10.60;99.90;;;;;;5055650;28;20425;-78
2021/10/01 06:33:54;;;;;;;1.00;0.57;;;10.80;99.90;;;;;;5056392;28;20947;-79
2021/10/01 06:36:23;;;;;;;0.90;0.50;;;11.00;99.90;;;;;;5055121;28;20456;-78
2021/10/01 06:38:55;;;;;;;0.80;0.50;;;11.10;99.90;;;;;;5057934;28;20419;-80
2021/10/01 06:41:24;;;;;;;0.90;0.60;;;11.20;99.90;;;;;;5060521;28;20418;-79
2021/10/01 06:43:57;;;;;;;1.10;0.73;;;11.20;99.90;;;;;;5058252;28;20457;-79
2021/10/01 06:46:31;;;;;;;1.80;1.70;;;11.40;99.90;;;;;;5060355;28;20387;-79
2021/10/01 06:49:11;;;;;;;1.20;0.70;;;11.50;99.90;;;;;;5058778;28;20410;-79
2021/10/01 06:51:49;;;;;;;0.80;0.50;;;11.50;99.90;;;;;;5059064;28;20485;-80
2021/10/01 07:36:25;;;;;;;0.97;0.87;;;12.40;99.90;;;;;;5064843;28;20463;-82
2021/10/01 07:39:24;;;;;;;0.90;0.50;;;12.30;99.90;;;;;;5063899;28;20390;-80
2021/10/01 08:18:44;;;;;;;2.10;1.13;;;13.90;99.80;;;;;;5060269;28;20392;-80
2021/10/01 08:21:12;;;;;;;1.00;0.53;;;14.10;99.60;;;;;;5058946;28;20450;-78
2021/10/01 08:23:42;;;;;;;0.90;0.50;;;14.20;97.70;;;;;;5059769;28;20440;-78
2021/10/01 08:26:11;;;;;;;0.90;0.70;;;14.20;96.00;;;;;;5076327;28;20431;-81
2021/10/01 08:28:40;;;;;;;1.10;0.90;;;14.40;95.80;;;;;;5059212;28;20502;-79
2021/10/01 08:31:15;;;;;;;0.80;0.50;;;14.30;93.90;;;;;;5076992;28;20487;-78
2021/10/01 08:33:45;;;;;;;0.90;0.60;;;14.40;92.50;;;;;;5062976;28;20506;-80
2021/10/01 08:36:17;;;;;;;1.20;0.80;;;14.40;92.30;;;;;;5059759;28;21007;-80
2021/10/01 08:38:54;;;;;;;0.90;0.60;;;14.50;91.90;;;;;;5059029;28;20471;-80
2021/10/01 08:41:23;;;;;;;0.90;0.60;;;14.50;90.00;;;;;;5059865;28;20434;-80
2021/10/01 08:43:51;;;;;;;0.90;0.60;;;14.70;90.00;;;;;;5059539;28;20491;-78
2021/10/01 08:46:22;;;;;;;1.00;0.60;;;14.70;87.50;;;;;;5060276;28;20423;-79
2021/10/01 08:48:53;;;;;;;0.90;0.53;;;14.80;86.60;;;;;;5062454;28;20921;-81
2021/10/01 08:51:22;;;;;;;0.90;0.57;;;14.90;85.50;;;;;;5062414;28;20440;-80
2021/10/01 08:53:52;;;;;;;1.10;0.80;;;15.10;84.80;;;;;;5061339;28;20401;-80
2021/10/01 08:56:23;;;;;;;0.90;0.50;;;15.40;84.10;;;;;;5060421;28;20462;-80
2021/10/01 08:58:52;;;;;;;1.30;1.10;;;15.40;82.90;;;;;;5058992;28;20370;-79
2021/10/01 09:01:21;;;;;;;0.90;0.60;;;15.40;81.50;;;;;;5057412;28;20459;-79
2021/10/01 09:03:49;;;;;;;0.90;0.57;;;15.20;78.00;;;;;;5059741;28;20410;-79
2021/10/01 09:06:20;;;;;;;1.20;0.60;;;15.30;77.40;;;;;;5072086;28;20428;-80
2021/10/01 09:08:50;;;;;;;1.10;0.80;;;15.40;76.20;;;;;;5063719;28;20460;-84
2021/10/01 09:11:18;;;;;;;2.13;0.93;;;15.40;75.60;;;;;;5060255;28;20776;-80
2021/10/01 09:13:46;;;;;;;1.00;0.60;;;15.60;73.80;;;;;;5060176;28;20504;-81
2021/10/01 09:16:15;;;;;;;0.80;0.43;;;15.70;74.50;;;;;;5060194;28;20437;-80
2021/10/01 09:18:43;;;;;;;0.90;0.67;;;15.80;73.10;;;;;;5059568;28;20936;-79
2021/10/01 09:21:14;;;;;;;1.00;0.50;;;15.80;72.50;;;;;;5058805;28;20447;-80
2021/10/01 09:23:55;;;;;;;1.00;0.60;;;15.70;71.30;;;;;;5059597;28;20409;-79
2021/10/01 09:26:25;;;;;;;0.90;0.50;;;15.80;69.80;;;;;;5059043;28;20423;-79
2021/10/01 09:28:55;;;;;;;1.00;0.50;;;16.00;71.30;;;;;;5059782;28;20386;-80
2021/10/01 09:31:35;;;;;;;0.90;0.50;;;16.20;70.60;;;;;;5059570;28;20512;-80
2021/10/01 09:34:05;;;;;;;0.83;0.50;;;16.20;82.50;;;;;;5060452;28;20379;-81
2021/10/01 09:36:34;;;;;;;1.10;0.60;;;16.20;80.70;;;;;;5062514;28;20440;-79
2021/10/01 09:39:06;;;;;;;1.00;0.60;;;16.10;85.90;;;;;;5071925;28;20438;-77
2021/10/01 09:41:37;;;;;;;0.90;0.60;;;16.10;86.90;;;;;;5070658;28;20451;-80
2021/10/01 09:44:09;;;;;;;0.90;0.50;;;16.20;79.30;;;;;;5065311;28;20433;-80
2021/10/01 09:46:40;;;;;;;0.90;0.60;;;16.20;84.20;;;;;;5061679;28;20523;-81
2021/10/01 09:49:10;;;;;;;1.00;0.77;;;16.30;81.10;;;;;;5057853;28;20493;-80
2021/10/01 09:51:39;;;;;;;0.90;0.50;;;16.50;85.60;;;;;;5059311;28;20430;-79
2021/10/01 09:54:12;;;;;;;0.90;0.60;;;16.60;87.40;;;;;;5058400;28;20457;-80
2021/10/01 09:56:41;;;;;;;1.00;0.70;;;16.50;87.40;;;;;;5059029;28;20452;-79
2021/10/01 09:59:12;;;;;;;0.90;0.50;;;16.60;87.00;;;;;;5064238;28;20423;-79
2021/10/01 10:02:08;;;;;;;1.13;0.60;;;16.70;83.60;;;;;;5063623;28;20435;-78
2021/10/01 10:04:39;;;;;;;0.90;0.57;;;16.60;83.40;;;;;;5068261;28;20427;-79
2021/10/01 10:07:10;;;;;;;0.90;0.60;;;16.50;82.20;;;;;;5070047;28;20409;-80
2021/10/01 10:09:40;;;;;;;0.90;0.50;;;16.60;82.30;;;;;;5068446;28;20421;-80
2021/10/01 10:12:12;;;;;;;1.10;0.60;;;16.80;83.10;;;;;;5057379;28;21018;-79
2021/10/01 10:14:49;;;;;;;1.83;0.60;;;17.00;93.10;;;;;;5058538;28;20500;-80
2021/10/01 10:17:19;;;;;;;0.90;0.50;;;17.10;82.20;;;;;;5074130;28;20533;-80
2021/10/01 10:19:49;;;;;;;2.43;1.37;;;17.20;80.50;;;;;;5074191;28;20419;-80
2021/10/01 10:22:19;;;;;;;0.90;0.50;;;17.30;78.70;;;;;;5058332;28;20436;-79
2021/10/01 10:24:49;;;;;;;1.57;0.57;;;17.50;76.00;;;;;;5063684;28;20396;-78
2021/10/01 10:27:18;;;;;;;1.00;0.63;;;17.40;74.80;;;;;;5066783;28;20415;-77
2021/10/01 10:29:47;;;;;;;1.50;0.70;;;17.10;71.70;;;;;;5068348;28;20438;-78
2021/10/01 10:32:20;;;;;;;1.97;1.50;;;16.90;69.80;;;;;;5065442;28;20442;-78
2021/10/01 10:34:59;;;;;;;0.90;0.40;;;16.90;70.00;;;;;;5064132;28;20438;-77
2021/10/01 10:37:41;;;;;;;0.90;0.50;;;17.00;69.90;;;;;;5060664;28;20530;-78
2021/10/01 10:40:13;;;;;;;0.90;0.40;;;17.10;69.80;;;;;;5062963;28;20447;-78
2021/10/01 10:42:44;;;;;;;1.03;0.60;;;17.20;70.30;;;;;;5087876;28;20516;-78
2021/10/01 10:45:18;;;;;;;1.10;0.70;;;17.30;69.10;;;;;;5078972;28;20422;-80
2021/10/01 10:47:57;;;;;;;0.90;0.47;;;17.40;67.30;;;;;;5077917;28;20417;-79
2021/10/01 10:50:50;;;;;;;1.77;0.80;;;17.50;67.00;;;;;;5075948;28;20491;-79
2021/10/01 10:53:31;;;;;;;1.83;0.83;;;17.70;67.00;;;;;;5074773;28;20434;-78
2021/10/01 10:56:19;;;;;;;1.37;0.93;;;17.90;67.10;;;;;;5074998;28;20429;-79
2021/10/01 10:58:52;;;;;;;1.00;0.70;;;17.80;64.30;;;;;;5078581;28;20426;-79
2021/10/01 11:01:38;;;;;;;0.90;0.50;;;17.70;60.20;;;;;;5074036;28;20446;-79
2021/10/01 11:04:39;;;;;;;3.53;0.87;;;17.60;58.90;;;;;;5058638;28;20414;-79
2021/10/01 11:07:09;;;;;;;1.10;0.70;;;17.70;59.10;;;;;;5065606;28;20404;-79
2021/10/01 11:09:39;;;;;;;1.30;0.80;;;18.00;60.00;;;;;;5077057;28;20430;-79
2021/10/01 11:12:28;;;;;;;1.27;1.17;;;18.30;59.90;;;;;;5072902;28;20454;-78
2021/10/01 11:15:12;;;;;;;1.10;0.63;;;18.50;58.70;;;;;;5070308;28;20413;-78
2021/10/01 11:17:41;;;;;;;1.33;1.20;;;18.50;58.20;;;;;;5073228;28;20531;-79
2021/10/01 11:20:35;;;;;;;1.10;0.70;;;18.50;56.10;;;;;;5076750;28;20434;-80
2021/10/01 11:23:20;;;;;;;1.20;0.67;;;18.60;55.10;;;;;;5075834;28;20447;-78
2021/10/01 11:25:50;;;;;;;1.17;0.70;;;18.40;53.40;;;;;;5079088;28;20685;-78
2021/10/01 11:28:34;;;;;;;1.00;0.60;;;18.30;53.20;;;;;;5077569;28;20578;-79
2021/10/01 11:31:03;;;;;;;0.90;0.50;;;18.50;52.70;;;;;;5076603;28;20972;-78
2021/10/01 11:33:31;;;;;;;1.93;1.80;;;18.50;51.90;;;;;;5077568;28;20460;-80
2021/10/01 11:36:00;;;;;;;0.90;0.50;;;18.60;50.70;;;;;;5077940;28;20513;-79
2021/10/01 11:38:33;;;;;;;1.30;0.63;;;18.70;50.40;;;;;;5076910;28;20447;-78
2021/10/01 11:41:09;;;;;;;0.97;0.53;;;18.70;50.00;;;;;;5076283;28;20439;-79
2021/10/01 11:43:54;;;;;;;1.00;0.60;;;18.80;49.10;;;;;;5076682;28;20432;-78
2021/10/01 11:46:28;;;;;;;0.93;0.70;;;18.90;47.80;;;;;;5077318;28;20415;-78
2021/10/01 11:49:02;;;;;;;1.60;0.80;;;19.00;46.40;;;;;;5058118;28;20477;-78
2021/10/01 11:51:32;;;;;;;1.10;0.50;;;18.90;45.40;;;;;;5054819;28;20451;-78
2021/10/01 11:54:08;;;;;;;0.90;0.50;;;18.90;42.80;;;;;;5055694;28;20424;-78
2021/10/01 11:56:36;;;;;;;1.17;0.70;;;18.70;41.60;;;;;;5056949;28;20419;-77
2021/10/01 11:59:05;;;;;;;1.27;0.80;;;18.70;41.40;;;;;;5056818;28;20423;-78
2021/10/01 12:01:35;;;;;;;1.40;1.30;;;18.60;41.30;;;;;;5055874;28;20438;-78
2021/10/01 12:04:04;;;;;;;1.93;0.77;;;18.50;40.30;;;;;;5057034;28;20436;-77
2021/10/01 12:06:36;;;;;;;0.90;0.40;;;18.60;40.50;;;;;;5056234;28;20438;-78
2021/10/01 12:09:06;;;;;;;1.30;0.80;;;18.60;39.40;;;;;;5056319;28;20485;-78
2021/10/01 12:11:36;;;;;;;0.97;0.60;;;18.50;38.00;;;;;;5056027;28;20828;-77
2021/10/01 12:14:14;;;;;;;1.00;0.50;;;18.60;37.50;;;;;;5056450;28;20409;-79
2021/10/01 12:16:55;;;;;;;1.07;0.63;;;18.70;37.10;;;;;;5054063;28;20467;-77
2021/10/01 12:19:25;;;;;;;1.83;1.10;;;18.90;36.50;;;;;;5058077;28;20419;-76
2021/10/01 12:22:03;;;;;;;1.77;1.20;;;19.00;36.30;;;;;;5055689;28;20467;-79
2021/10/01 12:24:45;;;;;;;0.90;0.50;;;19.10;35.80;;;;;;5054735;28;20425;-79
2021/10/01 12:27:14;;;;;;;0.90;0.50;;;19.20;34.40;;;;;;5056609;28;20435;-79
2021/10/01 12:29:49;;;;;;;1.30;1.00;;;19.00;31.20;;;;;;5058175;28;20427;-78
2021/10/01 12:32:21;;;;;;;0.90;0.57;;;18.90;30.00;;;;;;5056565;28;20501;-76
2021/10/01 12:34:56;;;;;;;0.90;0.50;;;18.80;29.00;;;;;;5056518;28;20389;-78
2021/10/01 12:37:28;;;;;;;0.90;0.50;;;18.90;28.60;;;;;;5056149;28;20486;-79
2021/10/01 12:39:58;;;;;;;1.00;0.50;;;18.80;27.10;;;;;;5057904;28;20423;-77
2021/10/01 12:42:29;;;;;;;0.90;0.60;;;18.90;27.40;;;;;;5056870;28;20444;-78
2021/10/01 12:45:03;;;;;;;0.90;0.53;;;18.90;26.40;;;;;;5061848;28;20408;-78
2021/10/01 12:47:40;;;;;;;1.40;0.83;;;18.90;25.80;;;;;;5058589;28;20385;-77
2021/10/01 12:50:10;;;;;;;1.10;0.50;;;18.80;24.90;;;;;;5058260;28;20378;-78
2021/10/01 12:52:47;;;;;;;0.90;0.50;;;18.90;24.00;;;;;;5056046;28;20849;-79
2021/10/01 12:55:17;;;;;;;1.00;0.60;;;18.90;23.10;;;;;;5056332;28;20382;-78
2021/10/01 12:57:47;;;;;;;1.43;0.60;;;18.90;22.50;;;;;;5057117;28;20461;-79
2021/10/01 13:00:19;;;;;;;1.00;0.70;;;18.80;21.30;;;;;;5056483;28;20407;-78
2021/10/01 13:02:53;;;;;;;0.90;0.50;;;18.80;21.00;;;;;;5056097;28;20786;-78
2021/10/01 13:05:23;;;;;;;0.90;0.50;;;18.80;20.10;;;;;;5056588;28;20412;-79
2021/10/01 13:07:53;;;;;;;1.37;0.50;;;18.80;19.90;;;;;;5056696;28;20423;-78
2021/10/01 13:10:27;;;;;;;0.90;0.50;;;18.90;19.20;;;;;;5056690;28;20431;-77
2021/10/01 13:13:03;;;;;;;1.33;0.57;;;18.90;18.80;;;;;;5057727;28;20421;-79
2021/10/01 13:15:43;;;;;;;0.90;0.50;;;19.00;18.10;;;;;;5056238;28;20408;-77
2021/10/01 13:18:18;;;;;;;1.37;0.60;;;19.00;18.10;;;;;;5056681;28;20451;-78
2021/10/01 13:20:50;;;;;;;0.90;0.50;;;19.00;17.30;;;;;;5056643;28;20407;-78
2021/10/01 13:23:31;;;;;;;0.90;0.40;;;19.00;16.80;;;;;;5055644;28;20869;-78
2021/10/01 13:26:01;;;;;;;0.90;0.50;;;19.00;16.10;;;;;;5058346;28;20481;-79
2021/10/01 13:28:31;;;;;;;1.43;1.03;;;19.00;16.50;;;;;;5057211;28;20408;-77
2021/10/01 13:31:01;;;;;;;1.00;0.50;;;19.10;16.30;;;;;;5056825;28;20505;-78
2021/10/01 13:33:30;;;;;;;1.00;0.60;;;19.00;15.40;;;;;;5057976;28;20427;-78
2021/10/01 13:35:59;;;;;;;0.90;0.40;;;18.90;14.70;;;;;;5057901;28;20420;-78
2021/10/01 13:38:29;;;;;;;1.00;0.53;;;19.00;14.10;;;;;;5055756;28;20497;-78
2021/10/01 13:40:58;;;;;;;1.30;1.20;;;19.00;13.80;;;;;;5056049;28;20461;-78
2021/10/01 13:43:27;;;;;;;0.90;0.50;;;18.90;12.80;;;;;;5057123;28;20485;-78
2021/10/01 13:45:55;;;;;;;1.30;0.70;;;18.90;12.80;;;;;;5055385;28;20438;-79
2021/10/01 13:48:27;;;;;;;1.10;0.70;;;19.00;12.70;;;;;;5056654;28;20455;-79
2021/10/01 13:50:56;;;;;;;1.00;0.90;;;18.90;12.90;;;;;;5058221;28;20829;-78
2021/10/01 13:53:25;;;;;;;1.00;0.50;;;19.00;12.70;;;;;;5059065;28;20826;-78
2021/10/01 13:55:54;;;;;;;1.30;1.00;;;19.00;12.50;;;;;;5057405;28;20922;-78
2021/10/01 13:58:22;;;;;;;1.00;0.70;;;18.90;12.40;;;;;;5055184;28;20461;-78
2021/10/01 14:00:51;;;;;;;0.90;0.50;;;18.80;11.30;;;;;;5055915;28;20442;-78
2021/10/01 14:03:20;;;;;;;1.10;0.83;;;18.70;11.10;;;;;;5054705;28;20449;-77
2021/10/01 14:05:51;;;;;;;1.00;0.60;;;18.70;11.30;;;;;;5055082;28;20431;-78
2021/10/01 14:08:20;;;;;;;1.20;0.80;;;18.70;10.90;;;;;;5057943;28;20437;-80
2021/10/01 14:10:48;;;;;;;0.90;0.40;;;18.60;10.20;;;;;;5064606;28;20413;-78
2021/10/01 14:13:16;;;;;;;0.90;0.50;;;18.50;9.50;;;;;;5073960;28;20431;-78
2021/10/01 14:15:47;;;;;;;1.33;1.23;;;18.40;9.10;;;;;;5073983;28;20451;-78
2021/10/01 14:18:16;;;;;;;1.10;0.60;;;18.40;8.70;;;;;;5074338;28;20540;-79
2021/10/01 14:20:45;;;;;;;0.90;0.50;;;18.30;8.60;;;;;;5073987;28;20421;-77
2021/10/01 14:23:14;;;;;;;0.90;0.50;;;18.30;8.10;;;;;;5070458;28;20418;-77
2021/10/01 14:25:42;;;;;;;0.90;0.53;;;18.30;8.00;;;;;;5072238;28;21002;-78
2021/10/01 14:28:12;;;;;;;0.93;0.57;;;18.20;7.80;;;;;;5077761;28;20458;-79
2021/10/01 14:30:41;;;;;;;1.10;0.50;;;18.30;7.50;;;;;;5076277;28;20406;-77
2021/10/01 14:33:12;;;;;;;1.63;1.03;;;18.30;7.40;;;;;;5074838;28;20442;-78
2021/10/01 14:35:42;;;;;;;0.90;0.60;;;18.30;7.30;;;;;;5074891;28;20407;-77
2021/10/01 14:38:11;;;;;;;0.90;0.50;;;18.30;6.90;;;;;;5075127;28;20458;-78